Time;durP1;ratioP1;P1;durP2;ratioP2;P2;SDS_P1;SDS_P2;PMS_P1;PMS_P2;Temp;Humidity;BMP_temperature;BMP_pressure;BME280_temperature;BME280_humidity;BME280_pressure;Samples;Min_cycle;Max_cycle;Signal;HPM_P1;HPM_P2
2023/10/30 00:01:48;;;;;;;6.95;1.65;;;10.80;99.90;;;;;;5046364;28;20126;-81
2023/10/30 00:04:14;;;;;;;6.55;1.70;;;10.80;99.90;;;;;;5083056;28;20044;-82
2023/10/30 00:06:40;;;;;;;7.37;1.80;;;10.80;99.90;;;;;;5046305;28;20031;-82
2023/10/30 00:09:06;;;;;;;4.22;1.48;;;10.70;99.90;;;;;;5091723;28;20127;-81
2023/10/30 00:11:31;;;;;;;7.07;1.70;;;10.70;99.90;;;;;;5039658;28;20043;-81
2023/10/30 00:13:57;;;;;;;3.80;1.65;;;10.60;99.90;;;;;;5083224;28;20035;-81
2023/10/30 00:16:23;;;;;;;8.38;1.90;;;10.60;99.90;;;;;;5077263;28;20119;-81
2023/10/30 00:18:49;;;;;;;3.90;1.80;;;10.60;99.90;;;;;;5070428;28;20035;-82
2023/10/30 00:21:15;;;;;;;5.18;1.63;;;10.50;99.90;;;;;;5078807;28;20056;-81
2023/10/30 00:23:40;;;;;;;6.07;2.13;;;10.50;99.90;;;;;;5060033;28;20036;-81
2023/10/30 00:26:07;;;;;;;6.22;2.00;;;10.50;99.90;;;;;;5076400;28;20071;-81
2023/10/30 00:28:36;;;;;;;6.17;1.93;;;10.40;99.90;;;;;;5064754;28;20463;-81
2023/10/30 00:31:02;;;;;;;8.23;1.87;;;10.40;99.90;;;;;;5075569;28;20047;-81
2023/10/30 00:33:28;;;;;;;3.73;1.80;;;10.30;99.90;;;;;;5058673;28;20079;-81
2023/10/30 00:35:53;;;;;;;5.23;2.00;;;10.30;99.90;;;;;;5075626;28;20717;-81
2023/10/30 00:38:19;;;;;;;4.17;1.60;;;10.30;99.90;;;;;;5074003;28;20041;-81
2023/10/30 00:40:45;;;;;;;5.40;1.70;;;10.30;99.90;;;;;;5091706;28;20032;-81
2023/10/30 00:43:11;;;;;;;7.93;1.80;;;10.30;99.90;;;;;;5095813;28;20430;-81
2023/10/30 00:45:36;;;;;;;5.05;1.85;;;10.20;99.90;;;;;;5062515;28;20043;-81
2023/10/30 00:48:02;;;;;;;5.33;1.90;;;10.20;99.90;;;;;;5097738;28;20039;-81
2023/10/30 00:50:28;;;;;;;5.27;2.03;;;10.20;99.90;;;;;;5045521;28;20158;-81
2023/10/30 00:52:54;;;;;;;5.13;1.97;;;10.10;99.90;;;;;;5061069;28;20135;-81
2023/10/30 00:55:19;;;;;;;8.53;1.80;;;10.20;99.90;;;;;;5073063;28;20090;-81
2023/10/30 00:57:45;;;;;;;5.83;1.90;;;10.20;99.90;;;;;;5073811;28;20032;-81
2023/10/30 01:00:11;;;;;;;3.27;1.87;;;10.10;99.90;;;;;;5065893;28;20119;-81
2023/10/30 01:02:37;;;;;;;5.87;2.17;;;10.10;99.90;;;;;;5082612;28;20032;-81
2023/10/30 01:05:03;;;;;;;5.40;1.87;;;10.10;99.90;;;;;;5084087;28;20036;-81
2023/10/30 01:07:28;;;;;;;4.00;2.00;;;10.10;99.90;;;;;;5065829;28;20047;-80
2023/10/30 01:09:56;;;;;;;3.77;1.97;;;10.10;99.90;;;;;;5079623;28;20078;-81
2023/10/30 01:12:22;;;;;;;6.30;2.03;;;10.00;99.90;;;;;;5078567;28;20044;-81
2023/10/30 01:14:48;;;;;;;5.73;2.20;;;10.00;99.90;;;;;;5070560;28;20050;-82
2023/10/30 01:17:13;;;;;;;5.53;2.10;;;10.00;99.90;;;;;;5081235;28;20102;-81
2023/10/30 01:19:39;;;;;;;5.47;2.07;;;10.00;99.90;;;;;;5103270;28;20178;-81
2023/10/30 01:22:05;;;;;;;4.23;1.80;;;10.00;99.90;;;;;;5063372;28;20047;-82
2023/10/30 01:24:31;;;;;;;4.87;1.97;;;10.00;99.90;;;;;;5050855;28;20047;-81
2023/10/30 01:26:56;;;;;;;5.53;2.00;;;10.00;99.90;;;;;;5063477;28;20047;-82
2023/10/30 01:29:22;;;;;;;4.53;1.90;;;9.90;99.90;;;;;;5064713;28;20036;-81
2023/10/30 01:31:48;;;;;;;4.17;1.87;;;9.90;99.90;;;;;;5078013;28;20402;-81
2023/10/30 01:34:13;;;;;;;7.60;2.10;;;9.90;99.90;;;;;;5077993;28;20093;-80
2023/10/30 01:36:39;;;;;;;4.53;2.00;;;9.90;99.90;;;;;;5066257;28;20036;-81
2023/10/30 01:39:05;;;;;;;4.53;1.70;;;9.90;99.90;;;;;;5082032;28;20035;-81
2023/10/30 01:41:30;;;;;;;3.33;1.90;;;9.90;99.90;;;;;;5058922;28;20090;-81
2023/10/30 01:43:56;;;;;;;6.07;2.30;;;9.80;99.90;;;;;;5083157;28;20391;-81
2023/10/30 01:46:22;;;;;;;3.43;1.80;;;9.90;99.90;;;;;;5083959;28;20123;-81
2023/10/30 01:48:48;;;;;;;3.97;1.93;;;9.80;99.90;;;;;;5080891;28;20092;-81
2023/10/30 01:51:16;;;;;;;4.20;1.90;;;9.80;99.90;;;;;;5066706;28;20044;-81
2023/10/30 01:53:44;;;;;;;4.97;2.10;;;9.80;99.90;;;;;;5088439;28;20071;-81
2023/10/30 01:56:10;;;;;;;4.43;2.17;;;9.80;99.90;;;;;;5079154;28;20510;-81
2023/10/30 01:58:37;;;;;;;7.33;2.33;;;9.80;99.90;;;;;;5082411;28;20120;-81
2023/10/30 02:01:03;;;;;;;6.90;2.47;;;9.80;99.90;;;;;;5078287;28;20093;-80
2023/10/30 02:03:28;;;;;;;5.17;2.10;;;9.90;99.90;;;;;;5100394;28;20040;-81
2023/10/30 02:05:54;;;;;;;6.93;2.50;;;9.90;99.90;;;;;;5082025;28;20046;-81
2023/10/30 02:08:21;;;;;;;6.13;2.10;;;9.80;99.90;;;;;;5095264;28;20139;-81
2023/10/30 02:10:47;;;;;;;8.13;2.30;;;9.80;99.90;;;;;;5083757;28;20039;-81
2023/10/30 02:13:13;;;;;;;6.90;2.10;;;9.90;99.90;;;;;;5082232;28;20099;-81
2023/10/30 02:15:38;;;;;;;7.07;2.27;;;9.90;99.90;;;;;;5060949;28;20112;-81
2023/10/30 02:18:05;;;;;;;9.93;2.40;;;10.00;99.90;;;;;;5100996;28;20036;-83
2023/10/30 02:20:33;;;;;;;6.83;2.30;;;10.00;99.90;;;;;;5057431;28;20094;-81
2023/10/30 02:22:59;;;;;;;5.57;2.20;;;10.00;99.90;;;;;;5081268;28;20035;-80
2023/10/30 02:25:25;;;;;;;4.77;1.93;;;10.00;99.90;;;;;;5073070;28;20043;-81
2023/10/30 02:27:54;;;;;;;7.57;2.20;;;10.10;99.90;;;;;;5082810;28;20114;-81
2023/10/30 02:30:20;;;;;;;8.53;2.20;;;10.10;99.90;;;;;;5077988;28;20035;-81
2023/10/30 02:32:47;;;;;;;7.23;2.30;;;10.10;99.90;;;;;;5068306;28;20039;-81
2023/10/30 02:35:14;;;;;;;6.33;2.10;;;10.00;99.90;;;;;;5082011;28;20425;-81
2023/10/30 02:37:40;;;;;;;6.83;2.60;;;10.00;99.90;;;;;;5086533;28;20027;-81
2023/10/30 02:40:07;;;;;;;10.17;2.47;;;10.10;99.90;;;;;;5068357;28;20101;-81
2023/10/30 02:42:33;;;;;;;10.80;2.30;;;10.10;99.90;;;;;;5081313;28;20035;-81
2023/10/30 02:44:59;;;;;;;7.63;2.40;;;10.10;99.90;;;;;;5077259;28;20044;-81
2023/10/30 02:47:26;;;;;;;8.30;2.33;;;10.10;99.90;;;;;;5058491;28;20051;-81
2023/10/30 02:49:52;;;;;;;6.73;2.37;;;10.10;99.90;;;;;;5083057;28;20122;-81
2023/10/30 02:52:18;;;;;;;8.50;2.30;;;10.00;99.90;;;;;;5078786;28;20115;-81
2023/10/30 02:54:47;;;;;;;8.13;2.20;;;10.00;99.90;;;;;;5059882;28;20194;-81
2023/10/30 02:57:13;;;;;;;5.57;2.27;;;10.00;99.90;;;;;;5099545;28;20048;-81
2023/10/30 02:59:40;;;;;;;7.97;2.40;;;10.00;99.90;;;;;;5089373;28;20459;-81
2023/10/30 03:02:06;;;;;;;7.00;2.30;;;10.00;99.90;;;;;;5098140;28;20035;-81
2023/10/30 03:04:32;;;;;;;5.20;1.90;;;10.00;99.90;;;;;;5085494;28;20484;-82
2023/10/30 03:06:58;;;;;;;9.07;2.50;;;10.00;99.90;;;;;;5089995;28;20062;-81
2023/10/30 03:09:30;;;;;;;9.23;2.43;;;10.00;99.90;;;;;;5086568;28;20147;-81
2023/10/30 03:11:55;;;;;;;6.95;2.45;;;10.00;99.90;;;;;;5099656;28;20090;-80
2023/10/30 03:14:21;;;;;;;7.17;2.50;;;10.00;99.90;;;;;;5074760;28;20597;-82
2023/10/30 03:16:47;;;;;;;9.10;2.43;;;10.00;99.90;;;;;;5077009;28;20035;-81
2023/10/30 03:19:13;;;;;;;15.30;2.53;;;10.10;99.90;;;;;;5085083;28;20047;-82
2023/10/30 03:21:39;;;;;;;10.53;2.70;;;10.10;99.90;;;;;;5067751;28;20039;-81
2023/10/30 03:24:05;;;;;;;9.00;2.47;;;10.10;99.90;;;;;;5098879;28;20036;-81
2023/10/30 03:26:31;;;;;;;10.37;3.00;;;10.10;99.90;;;;;;5084289;28;20044;-81
2023/10/30 03:28:57;;;;;;;9.17;2.40;;;10.10;99.90;;;;;;5065840;28;20059;-80
2023/10/30 03:31:23;;;;;;;9.20;2.80;;;10.10;99.90;;;;;;5063902;28;20097;-82
2023/10/30 03:33:48;;;;;;;9.13;2.67;;;10.10;99.90;;;;;;5044276;28;20039;-81
2023/10/30 03:36:19;;;;;;;9.30;2.30;;;10.20;99.90;;;;;;5060532;28;20040;-81
2023/10/30 03:38:45;;;;;;;8.53;2.37;;;10.20;99.90;;;;;;5076797;28;20032;-81
2023/10/30 03:41:10;;;;;;;6.43;2.13;;;10.20;99.90;;;;;;5103863;28;20040;-81
2023/10/30 03:43:36;;;;;;;9.00;2.47;;;10.20;99.90;;;;;;5043165;28;20514;-81
2023/10/30 03:46:02;;;;;;;7.67;2.50;;;10.20;99.90;;;;;;5077623;28;20380;-81
2023/10/30 03:48:27;;;;;;;8.33;2.90;;;10.20;99.90;;;;;;5074518;28;20119;-81
2023/10/30 03:50:53;;;;;;;9.03;2.60;;;10.20;99.90;;;;;;5069076;28;20479;-81
2023/10/30 03:53:19;;;;;;;6.57;2.40;;;10.20;99.90;;;;;;5040262;28;20044;-81
2023/10/30 03:55:45;;;;;;;10.77;2.63;;;10.20;99.90;;;;;;5049157;28;20032;-81
2023/10/30 03:58:10;;;;;;;10.67;2.93;;;10.30;99.90;;;;;;5049828;28;20092;-81
2023/10/30 04:00:36;;;;;;;10.10;2.47;;;10.30;99.90;;;;;;5087484;28;20407;-81
2023/10/30 04:03:02;;;;;;;12.53;2.90;;;10.30;99.90;;;;;;5056845;28;20063;-82
2023/10/30 04:05:27;;;;;;;7.97;2.60;;;10.30;99.90;;;;;;5062565;28;20127;-81
2023/10/30 04:07:53;;;;;;;8.13;2.27;;;10.30;99.90;;;;;;5068963;28;20569;-81
2023/10/30 04:10:19;;;;;;;9.80;2.67;;;10.30;99.90;;;;;;5057567;28;20039;-81
2023/10/30 04:12:45;;;;;;;8.87;2.50;;;10.30;99.90;;;;;;5064627;28;20035;-81
2023/10/30 04:15:11;;;;;;;9.60;2.70;;;10.30;99.90;;;;;;5089872;28;20040;-81
2023/10/30 04:17:37;;;;;;;11.57;2.70;;;10.20;99.90;;;;;;5106925;28;20448;-80
2023/10/30 04:20:03;;;;;;;10.07;2.40;;;10.30;99.90;;;;;;5077636;28;20052;-81
2023/10/30 04:22:29;;;;;;;5.57;2.10;;;10.30;99.90;;;;;;5098720;28;20054;-82
2023/10/30 04:24:55;;;;;;;7.67;2.43;;;10.20;99.90;;;;;;5071670;28;20047;-82
2023/10/30 04:27:21;;;;;;;12.00;2.27;;;10.20;99.90;;;;;;5061722;28;20031;-81
2023/10/30 04:29:48;;;;;;;7.97;2.40;;;10.20;99.90;;;;;;5058809;28;20043;-81
2023/10/30 04:32:13;;;;;;;9.50;2.33;;;10.20;99.90;;;;;;5079180;28;20039;-81
2023/10/30 04:34:39;;;;;;;9.73;2.80;;;10.20;99.90;;;;;;5068657;28;20384;-81
2023/10/30 04:37:05;;;;;;;9.57;3.10;;;10.20;99.90;;;;;;5039223;28;20044;-81
2023/10/30 04:39:31;;;;;;;9.87;2.70;;;10.20;99.90;;;;;;5064371;28;20499;-81
2023/10/30 04:41:57;;;;;;;13.07;2.50;;;10.20;99.90;;;;;;5085012;28;20031;-81
2023/10/30 04:44:22;;;;;;;10.30;2.23;;;10.20;99.90;;;;;;5074712;28;20031;-80
2023/10/30 04:46:48;;;;;;;10.27;2.87;;;10.20;99.90;;;;;;5087867;28;20043;-82
2023/10/30 04:49:14;;;;;;;10.03;2.50;;;10.10;99.90;;;;;;5069942;28;20126;-81
2023/10/30 04:51:40;;;;;;;11.27;2.93;;;10.10;99.90;;;;;;5075069;28;20040;-82
2023/10/30 04:54:05;;;;;;;10.30;3.47;;;10.10;99.90;;;;;;5056077;28;20106;-80
2023/10/30 04:56:31;;;;;;;7.90;2.13;;;10.10;99.90;;;;;;5065125;28;20040;-80
2023/10/30 04:58:57;;;;;;;8.20;2.40;;;10.10;99.90;;;;;;5050766;28;20038;-81
2023/10/30 05:01:22;;;;;;;11.00;2.70;;;10.10;99.90;;;;;;5078352;28;20028;-81
2023/10/30 05:03:48;;;;;;;6.30;2.30;;;10.10;99.90;;;;;;5077647;28;20097;-81
2023/10/30 05:06:14;;;;;;;9.47;2.60;;;10.10;99.90;;;;;;5071117;28;20058;-81
2023/10/30 05:08:40;;;;;;;11.30;2.50;;;10.00;99.90;;;;;;5056400;28;20040;-81
2023/10/30 05:11:05;;;;;;;10.60;2.43;;;10.00;99.90;;;;;;5076446;28;20058;-81
2023/10/30 05:13:31;;;;;;;9.33;2.50;;;10.00;99.90;;;;;;5080763;28;20127;-82
2023/10/30 05:15:57;;;;;;;11.43;2.70;;;10.00;99.90;;;;;;5063967;28;20049;-81
2023/10/30 05:18:29;;;;;;;11.57;2.40;;;9.90;99.90;;;;;;5077785;28;20032;-81
2023/10/30 05:20:55;;;;;;;9.30;2.70;;;9.90;99.90;;;;;;5059764;28;20056;-81
2023/10/30 05:23:21;;;;;;;9.70;2.13;;;9.90;99.90;;;;;;5089344;28;20044;-81
2023/10/30 05:25:47;;;;;;;10.27;2.40;;;9.90;99.90;;;;;;5077796;28;20058;-81
2023/10/30 05:28:13;;;;;;;10.73;2.40;;;9.90;99.90;;;;;;5066739;28;20128;-81
2023/10/30 05:30:38;;;;;;;10.40;2.27;;;9.90;99.90;;;;;;5061418;28;20055;-82
2023/10/30 05:33:04;;;;;;;15.60;2.83;;;9.90;99.90;;;;;;5090194;28;20044;-81
2023/10/30 05:35:31;;;;;;;11.17;3.00;;;9.80;99.90;;;;;;5055746;28;20103;-81
2023/10/30 05:37:57;;;;;;;13.30;2.33;;;9.80;99.90;;;;;;5091525;28;20483;-82
2023/10/30 05:40:23;;;;;;;11.23;2.47;;;9.80;99.90;;;;;;5064823;28;20047;-81
2023/10/30 05:42:49;;;;;;;8.90;2.50;;;9.80;99.90;;;;;;5067329;28;20055;-82
2023/10/30 05:45:15;;;;;;;11.47;2.63;;;9.80;99.90;;;;;;5082765;28;20036;-81
2023/10/30 05:47:41;;;;;;;10.60;2.67;;;9.80;99.90;;;;;;5070444;28;20043;-81
2023/10/30 05:50:09;;;;;;;10.10;2.23;;;9.80;99.90;;;;;;5079016;28;20052;-81
2023/10/30 05:52:35;;;;;;;6.07;2.30;;;9.80;99.90;;;;;;5061805;28;20423;-82
2023/10/30 05:55:01;;;;;;;10.33;2.40;;;9.80;99.90;;;;;;5040097;28;20097;-82
2023/10/30 05:57:26;;;;;;;8.37;2.17;;;9.80;99.90;;;;;;5071106;28;20177;-81
2023/10/30 05:59:52;;;;;;;7.97;2.63;;;9.80;99.90;;;;;;5099827;28;20071;-81
2023/10/30 06:02:18;;;;;;;9.90;2.47;;;9.80;99.90;;;;;;5086905;28;20085;-81
2023/10/30 06:04:43;;;;;;;10.17;2.80;;;9.80;99.90;;;;;;5080363;28;20054;-82
2023/10/30 06:07:09;;;;;;;12.90;2.57;;;9.70;99.90;;;;;;5096678;28;20047;-82
2023/10/30 06:09:35;;;;;;;10.53;2.40;;;9.80;99.90;;;;;;5101052;28;20062;-82
2023/10/30 06:12:00;;;;;;;13.73;2.90;;;9.70;99.90;;;;;;5081829;28;20040;-82
2023/10/30 06:14:26;;;;;;;7.67;2.50;;;9.80;99.90;;;;;;5081123;28;20071;-82
2023/10/30 06:16:52;;;;;;;10.00;2.67;;;9.80;99.90;;;;;;5064622;28;20047;-81
2023/10/30 06:19:18;;;;;;;8.00;2.57;;;9.80;99.90;;;;;;5067474;28;20507;-82
2023/10/30 06:21:43;;;;;;;9.30;2.20;;;9.80;99.90;;;;;;5083320;28;20047;-82
2023/10/30 06:24:09;;;;;;;11.03;2.77;;;9.80;99.90;;;;;;5047174;28;20036;-82
2023/10/30 06:26:40;;;;;;;11.57;2.60;;;9.80;99.90;;;;;;5079083;28;20039;-82
2023/10/30 06:29:07;;;;;;;9.90;2.60;;;9.80;99.90;;;;;;5081789;28;20523;-82
2023/10/30 06:31:33;;;;;;;12.23;2.80;;;9.80;99.90;;;;;;5079845;28;20040;-81
2023/10/30 06:33:58;;;;;;;9.90;3.10;;;9.80;99.90;;;;;;5064300;28;20522;-81
2023/10/30 06:36:24;;;;;;;13.37;2.70;;;9.80;99.90;;;;;;5068647;28;20043;-82
2023/10/30 06:38:50;;;;;;;6.83;2.50;;;9.80;99.90;;;;;;5057661;28;20472;-81
2023/10/30 06:41:15;;;;;;;8.37;2.30;;;9.90;99.90;;;;;;5071883;28;20044;-82
2023/10/30 06:43:42;;;;;;;9.57;2.43;;;9.90;99.90;;;;;;5060311;28;20040;-81
2023/10/30 06:46:08;;;;;;;7.90;2.40;;;9.90;99.90;;;;;;5067389;28;20044;-81
2023/10/30 06:48:34;;;;;;;10.13;2.60;;;10.00;99.90;;;;;;5073676;28;20050;-82
2023/10/30 06:51:00;;;;;;;8.90;2.30;;;10.00;99.90;;;;;;5056377;28;20039;-82
2023/10/30 06:53:26;;;;;;;9.90;2.93;;;10.00;99.90;;;;;;5078214;28;20043;-81
2023/10/30 06:55:52;;;;;;;14.40;2.53;;;10.10;99.90;;;;;;5075237;28;20123;-81
2023/10/30 06:58:18;;;;;;;6.97;2.40;;;10.10;99.90;;;;;;5075982;28;20115;-81
2023/10/30 07:00:44;;;;;;;8.70;3.10;;;10.10;99.90;;;;;;5075305;28;20101;-81
2023/10/30 07:03:10;;;;;;;8.90;2.43;;;10.20;99.90;;;;;;5062719;28;20035;-82
2023/10/30 07:05:36;;;;;;;10.03;2.57;;;10.20;99.90;;;;;;5080495;28;20036;-81
2023/10/30 07:08:03;;;;;;;7.27;2.27;;;10.30;99.90;;;;;;5077880;28;20078;-81
2023/10/30 07:10:29;;;;;;;10.70;2.70;;;10.30;99.90;;;;;;5097397;28;20031;-81
2023/10/30 07:12:54;;;;;;;8.00;2.57;;;10.40;99.90;;;;;;5098143;28;20613;-81
2023/10/30 07:15:20;;;;;;;7.77;2.40;;;10.40;99.90;;;;;;5066436;28;20055;-81
2023/10/30 07:17:47;;;;;;;8.10;2.30;;;10.40;99.90;;;;;;5078598;28;20109;-81
2023/10/30 07:20:13;;;;;;;10.17;2.37;;;10.50;99.90;;;;;;5076291;28;20056;-81
2023/10/30 07:22:39;;;;;;;7.93;2.50;;;10.50;99.90;;;;;;5059279;28;20047;-81
2023/10/30 07:25:06;;;;;;;10.47;2.60;;;10.60;99.90;;;;;;5093878;28;20039;-81
2023/10/30 07:27:33;;;;;;;8.00;2.47;;;10.60;99.90;;;;;;5067245;28;20123;-82
2023/10/30 07:29:59;;;;;;;12.90;2.80;;;10.60;99.90;;;;;;5064203;28;20122;-82
2023/10/30 07:32:25;;;;;;;7.53;2.73;;;10.70;99.90;;;;;;5090210;28;20415;-82
2023/10/30 07:34:51;;;;;;;8.83;2.90;;;10.70;99.90;;;;;;5085145;28;20043;-82
2023/10/30 07:37:17;;;;;;;7.77;2.53;;;10.80;99.90;;;;;;5075621;28;20043;-82
2023/10/30 07:39:44;;;;;;;7.50;2.50;;;10.80;99.90;;;;;;5081923;28;20555;-81
2023/10/30 07:42:09;;;;;;;7.53;2.47;;;10.80;99.90;;;;;;5085602;28;20036;-82
2023/10/30 07:44:36;;;;;;;9.30;3.23;;;10.90;99.90;;;;;;5064024;28;20515;-81
2023/10/30 07:47:03;;;;;;;10.13;3.20;;;11.00;99.90;;;;;;5061468;28;20043;-82
2023/10/30 07:49:28;;;;;;;8.03;2.87;;;11.00;99.90;;;;;;5068035;28;20118;-81
2023/10/30 07:51:54;;;;;;;11.10;2.60;;;11.00;99.90;;;;;;5043987;28;20188;-81
2023/10/30 07:54:21;;;;;;;12.97;2.73;;;11.10;99.90;;;;;;5061230;28;20085;-81
2023/10/30 07:56:46;;;;;;;13.77;2.90;;;11.10;99.90;;;;;;5076866;28;20078;-81
2023/10/30 07:59:12;;;;;;;8.83;2.87;;;11.10;99.90;;;;;;5104928;28;20487;-81
2023/10/30 08:01:39;;;;;;;12.00;2.97;;;11.20;99.90;;;;;;5054191;28;20040;-81
2023/10/30 08:04:06;;;;;;;7.67;2.67;;;11.30;99.90;;;;;;5073400;28;20044;-80
2023/10/30 08:06:32;;;;;;;10.67;2.70;;;11.30;99.90;;;;;;5039099;28;20044;-81
2023/10/30 08:08:58;;;;;;;7.00;2.50;;;11.40;99.90;;;;;;5066296;28;20121;-81
2023/10/30 08:11:24;;;;;;;10.90;3.10;;;11.40;99.90;;;;;;5055628;28;20511;-81
2023/10/30 08:13:50;;;;;;;9.00;2.60;;;11.40;99.90;;;;;;5071846;28;20071;-81
2023/10/30 08:16:15;;;;;;;10.07;2.80;;;11.50;99.90;;;;;;5055385;28;20082;-80
2023/10/30 08:18:41;;;;;;;10.68;2.80;;;11.50;99.90;;;;;;5093143;28;20498;-82
2023/10/30 08:21:07;;;;;;;12.57;2.70;;;11.60;99.90;;;;;;5055487;28;20140;-81
2023/10/30 08:23:36;;;;;;;8.38;2.60;;;11.60;99.90;;;;;;5038410;28;20040;-81
2023/10/30 08:26:03;;;;;;;9.82;2.40;;;11.70;99.90;;;;;;5073645;28;20055;-81
2023/10/30 08:28:29;;;;;;;9.43;2.58;;;11.70;99.90;;;;;;5072893;28;20035;-82
2023/10/30 08:30:55;;;;;;;13.25;3.30;;;11.80;99.90;;;;;;5073719;28;20564;-82
2023/10/30 08:33:20;;;;;;;8.30;2.72;;;11.80;99.90;;;;;;5056834;28;20044;-81
2023/10/30 08:35:47;;;;;;;9.45;2.65;;;11.80;99.90;;;;;;5060697;28;20059;-82
2023/10/30 08:38:13;;;;;;;9.95;3.00;;;11.90;99.90;;;;;;5086691;28;20399;-82
2023/10/30 08:40:38;;;;;;;5.72;2.00;;;11.90;99.90;;;;;;5096252;28;20040;-81
2023/10/30 08:43:04;;;;;;;6.38;2.45;;;12.00;99.90;;;;;;5057750;28;20055;-81
2023/10/30 08:45:30;;;;;;;14.02;3.08;;;12.10;99.90;;;;;;5082353;28;20043;-81
2023/10/30 08:47:55;;;;;;;10.30;2.75;;;12.10;99.90;;;;;;5044827;28;20471;-82
2023/10/30 08:50:21;;;;;;;11.50;2.35;;;12.20;99.90;;;;;;5080125;28;20096;-82
2023/10/30 08:52:47;;;;;;;7.63;2.20;;;12.20;99.90;;;;;;5090852;28;20052;-81
2023/10/30 08:55:13;;;;;;;8.52;2.60;;;12.30;99.90;;;;;;5089986;28;20028;-81
2023/10/30 08:57:38;;;;;;;8.70;2.33;;;12.40;99.90;;;;;;5057967;28;20041;-83
2023/10/30 09:00:07;;;;;;;6.63;2.40;;;12.40;99.90;;;;;;5083134;28;20146;-81
2023/10/30 09:02:34;;;;;;;10.60;2.40;;;12.50;99.90;;;;;;5061267;28;20032;-82
2023/10/30 09:04:59;;;;;;;10.05;2.42;;;12.60;99.90;;;;;;5079152;28;20043;-81
2023/10/30 09:07:26;;;;;;;12.23;2.80;;;12.60;99.90;;;;;;5062348;28;20043;-80
2023/10/30 09:09:51;;;;;;;7.80;2.83;;;12.60;99.90;;;;;;5064978;28;20048;-81
2023/10/30 09:12:17;;;;;;;7.97;2.70;;;12.70;99.90;;;;;;5085033;28;20039;-81
2023/10/30 09:14:43;;;;;;;7.90;2.38;;;12.70;99.90;;;;;;5071589;28;20036;-81
2023/10/30 09:17:09;;;;;;;9.55;2.78;;;12.80;99.90;;;;;;5095081;28;20127;-81
2023/10/30 09:19:36;;;;;;;13.98;2.65;;;12.80;99.90;;;;;;5097738;28;20044;-80
2023/10/30 09:22:02;;;;;;;10.02;2.92;;;12.90;99.90;;;;;;5086255;28;20471;-81
2023/10/30 09:24:28;;;;;;;10.77;2.78;;;12.90;99.90;;;;;;5045603;28;20040;-81
2023/10/30 09:26:54;;;;;;;14.40;5.97;;;13.00;99.90;;;;;;5055960;28;20055;-81
2023/10/30 09:29:20;;;;;;;11.05;2.85;;;13.00;99.90;;;;;;5057898;28;20168;-81
2023/10/30 09:31:46;;;;;;;9.38;2.72;;;13.10;99.90;;;;;;5075831;28;20040;-81
2023/10/30 09:34:12;;;;;;;11.13;2.40;;;13.20;99.90;;;;;;5092848;28;20044;-82
2023/10/30 09:36:38;;;;;;;9.95;3.17;;;13.20;99.90;;;;;;5093132;28;20066;-81
2023/10/30 09:39:04;;;;;;;7.88;2.63;;;13.30;99.90;;;;;;5076589;28;20490;-84
2023/10/30 09:41:32;;;;;;;10.65;2.60;;;13.30;99.90;;;;;;5056526;28;20045;-81
2023/10/30 09:43:58;;;;;;;11.85;3.17;;;13.30;99.90;;;;;;5076096;28;20032;-81
2023/10/30 09:46:29;;;;;;;14.80;2.88;;;13.30;99.90;;;;;;5094016;28;20043;-82
2023/10/30 09:48:57;;;;;;;9.13;2.43;;;13.30;99.90;;;;;;5059369;28;20044;-81
2023/10/30 09:51:24;;;;;;;10.30;2.40;;;13.30;99.90;;;;;;5075870;28;20047;-81
2023/10/30 09:53:53;;;;;;;10.02;2.75;;;13.30;99.90;;;;;;5076421;28;20036;-82
2023/10/30 09:56:19;;;;;;;8.93;3.00;;;13.40;99.90;;;;;;5075983;28;20044;-80
2023/10/30 09:58:46;;;;;;;11.02;2.75;;;13.30;99.90;;;;;;5059677;28;20077;-81
2023/10/30 10:01:12;;;;;;;8.48;2.60;;;13.30;99.90;;;;;;5047230;28;20495;-81
2023/10/30 10:03:37;;;;;;;7.60;2.30;;;13.20;99.90;;;;;;5092965;28;20134;-81
2023/10/30 10:06:04;;;;;;;9.93;2.90;;;13.10;99.90;;;;;;5077078;28;20040;-82
2023/10/30 10:08:30;;;;;;;13.73;2.45;;;13.00;99.90;;;;;;5059111;28;20040;-81
2023/10/30 10:10:57;;;;;;;9.82;2.92;;;12.90;99.90;;;;;;5059195;28;20520;-82
2023/10/30 10:13:24;;;;;;;12.32;3.03;;;13.00;99.90;;;;;;5064681;28;20051;-82
2023/10/30 10:15:51;;;;;;;9.95;2.75;;;12.90;99.90;;;;;;5062927;28;20043;-82
2023/10/30 10:18:28;;;;;;;9.75;2.72;;;12.90;99.90;;;;;;5092614;28;20081;-81
2023/10/30 10:21:04;;;;;;;10.93;2.78;;;12.90;99.90;;;;;;5075217;28;20079;-82
2023/10/30 10:23:33;;;;;;;9.27;2.35;;;12.90;99.90;;;;;;5075726;28;20036;-81
2023/10/30 10:26:03;;;;;;;16.83;2.72;;;12.90;99.90;;;;;;5092284;28;20039;-82
2023/10/30 10:28:29;;;;;;;9.43;2.40;;;12.90;99.90;;;;;;5075584;28;20036;-81
2023/10/30 10:30:55;;;;;;;10.57;2.58;;;12.90;99.90;;;;;;5074372;28;20127;-82
2023/10/30 10:33:28;;;;;;;10.75;2.97;;;13.00;99.90;;;;;;5075100;28;20047;-81
2023/10/30 10:35:55;;;;;;;8.88;2.63;;;13.10;99.90;;;;;;5075049;28;20044;-81
2023/10/30 10:38:21;;;;;;;5.78;2.58;;;13.20;99.90;;;;;;5091798;28;20036;-81
2023/10/30 10:40:48;;;;;;;9.68;2.83;;;13.30;99.90;;;;;;5054720;28;20102;-81
2023/10/30 10:43:18;;;;;;;7.28;2.97;;;13.40;99.90;;;;;;5049646;28;20032;-82
2023/10/30 10:45:50;;;;;;;11.18;2.50;;;13.40;99.90;;;;;;5092042;28;20046;-81
2023/10/30 10:48:16;;;;;;;11.05;3.05;;;13.40;99.90;;;;;;5075277;28;20062;-82
2023/10/30 10:50:42;;;;;;;11.90;3.20;;;13.50;99.90;;;;;;5085463;28;20036;-82
2023/10/30 10:53:10;;;;;;;10.32;2.85;;;13.60;99.90;;;;;;5073183;28;20037;-82
2023/10/30 10:55:45;;;;;;;10.85;2.80;;;13.70;99.90;;;;;;5078541;28;20565;-82
2023/10/30 10:58:20;;;;;;;10.55;3.13;;;13.80;99.90;;;;;;5084971;28;20150;-81
2023/10/30 11:00:47;;;;;;;11.30;2.65;;;13.90;99.90;;;;;;5061080;28;20032;-81
2023/10/30 11:03:13;;;;;;;11.02;2.58;;;13.90;99.90;;;;;;5074705;28;20036;-81
2023/10/30 11:05:40;;;;;;;11.00;2.47;;;13.90;99.90;;;;;;5069509;28;20036;-81
2023/10/30 11:08:41;;;;;;;8.27;2.25;;;13.90;99.90;;;;;;5082461;28;20074;-82
2023/10/30 11:11:26;;;;;;;9.95;2.40;;;13.90;99.90;;;;;;5079227;28;20035;-81
2023/10/30 11:14:11;;;;;;;10.70;2.70;;;13.80;99.90;;;;;;5080441;28;20040;-83
2023/10/30 11:17:00;;;;;;;11.68;2.50;;;13.80;99.90;;;;;;5082053;28;20050;-81
2023/10/30 11:19:31;;;;;;;8.30;2.53;;;13.90;99.90;;;;;;5061127;28;20032;-82
2023/10/30 11:21:56;;;;;;;10.95;2.80;;;13.90;99.90;;;;;;5086147;28;20079;-81
2023/10/30 11:24:43;;;;;;;10.88;2.60;;;14.00;99.90;;;;;;5091508;28;20181;-81
2023/10/30 11:27:27;;;;;;;7.07;2.20;;;14.00;99.90;;;;;;5071077;28;20040;-81
2023/10/30 11:29:57;;;;;;;10.55;2.60;;;14.10;99.90;;;;;;5087955;28;20039;-81
2023/10/30 11:32:31;;;;;;;9.30;2.70;;;14.10;99.90;;;;;;5089603;28;20135;-81
2023/10/30 11:34:59;;;;;;;11.10;2.85;;;14.10;99.90;;;;;;5057817;28;20074;-81
2023/10/30 11:37:27;;;;;;;7.25;2.30;;;14.20;99.90;;;;;;5058869;28;20044;-81
2023/10/30 11:39:54;;;;;;;8.60;2.55;;;14.30;99.90;;;;;;5055632;28;20036;-81
2023/10/30 11:42:23;;;;;;;9.82;2.75;;;14.30;99.90;;;;;;5077510;28;20040;-81
2023/10/30 11:45:24;;;;;;;6.85;2.28;;;14.30;99.90;;;;;;5075060;28;20076;-81
2023/10/30 11:47:56;;;;;;;9.55;2.60;;;14.20;99.90;;;;;;5063357;28;20449;-81
2023/10/30 11:50:27;;;;;;;11.35;2.97;;;14.10;99.90;;;;;;5087348;28;20396;-81
2023/10/30 11:52:53;;;;;;;13.30;3.17;;;14.10;99.90;;;;;;5056690;28;20036;-82
2023/10/30 11:55:21;;;;;;;9.82;2.53;;;14.10;99.90;;;;;;5049286;28;20036;-81
2023/10/30 11:57:48;;;;;;;9.65;2.83;;;14.00;99.90;;;;;;5089223;28;20040;-81
2023/10/30 12:00:14;;;;;;;8.65;2.50;;;14.00;99.90;;;;;;5072502;28;20043;-82
2023/10/30 12:02:41;;;;;;;8.43;2.65;;;14.00;99.90;;;;;;5055719;28;20047;-81
2023/10/30 12:05:08;;;;;;;10.52;2.42;;;14.00;99.90;;;;;;5089584;28;20403;-81
2023/10/30 12:07:34;;;;;;;9.75;2.63;;;13.90;99.90;;;;;;5055840;28;20079;-81
2023/10/30 12:10:02;;;;;;;12.50;2.55;;;13.90;99.90;;;;;;5039299;28;20067;-81
2023/10/30 12:12:29;;;;;;;10.07;2.75;;;14.00;99.90;;;;;;5072779;28;20054;-81
2023/10/30 12:14:59;;;;;;;8.38;2.35;;;14.00;99.90;;;;;;5072837;28;20035;-81
2023/10/30 12:17:26;;;;;;;8.95;2.55;;;14.00;99.90;;;;;;5073052;28;20097;-81
2023/10/30 12:19:51;;;;;;;12.30;3.08;;;14.00;99.90;;;;;;5072774;28;20066;-82
2023/10/30 12:22:17;;;;;;;8.80;2.40;;;14.00;99.90;;;;;;5071471;28;20031;-82
2023/10/30 12:24:43;;;;;;;9.98;2.70;;;14.00;99.90;;;;;;5052840;28;20496;-82
2023/10/30 12:27:17;;;;;;;7.68;2.22;;;14.00;99.90;;;;;;5036094;28;20036;-81
2023/10/30 12:29:43;;;;;;;8.50;2.47;;;14.00;99.90;;;;;;5072939;28;20044;-81
2023/10/30 12:32:09;;;;;;;15.55;2.92;;;14.00;99.90;;;;;;5073339;28;20036;-81
2023/10/30 12:34:36;;;;;;;12.68;2.72;;;14.00;99.90;;;;;;5072925;28;20051;-82
2023/10/30 12:37:24;;;;;;;14.57;3.08;;;14.00;99.90;;;;;;5039631;28;20123;-81
2023/10/30 12:40:10;;;;;;;10.40;2.78;;;14.00;99.90;;;;;;5053216;28;20032;-81
2023/10/30 12:42:41;;;;;;;9.93;2.13;;;14.00;99.90;;;;;;5053110;28;20047;-80
2023/10/30 12:45:18;;;;;;;10.70;2.90;;;14.10;99.90;;;;;;5071913;28;20039;-81